Time;durP1;ratioP1;P1;durP2;ratioP2;P2;SDS_P1;SDS_P2;PMS_P1;PMS_P2;Temp;Humidity;BMP_temperature;BMP_pressure;BME280_temperature;BME280_humidity;BME280_pressure;Samples;Min_cycle;Max_cycle;Signal;HPM_P1;HPM_P2
2021/12/19 00:10:08;;;;;;;5.47;2.80;;;;;;;;;;5014928;28;20303;-75
2021/12/19 00:12:34;;;;;;;4.07;2.90;;;;;;;;;;5030131;28;20213;-76
2021/12/19 00:15:00;;;;;;;4.23;3.33;;;;;;;;;;4981436;28;20651;-76
2021/12/19 00:17:27;;;;;;;8.50;3.93;;;;;;;;;;5013503;28;20216;-76
2021/12/19 00:19:53;;;;;;;7.07;3.70;;;;;;;;;;5044840;28;20216;-76
2021/12/19 00:22:19;;;;;;;5.97;3.60;;;;;;;;;;5034074;28;20736;-76
2021/12/19 00:24:50;;;;;;;6.17;4.30;;;;;;;;;;5020294;28;21002;-76
2021/12/19 00:27:17;;;;;;;8.90;3.83;;;;;;;;;;5013209;28;20225;-76
2021/12/19 00:29:43;;;;;;;6.40;4.00;;;;;;;;;;5025707;28;20417;-76
2021/12/19 00:32:10;;;;;;;5.93;4.40;;;;;;;;;;5032474;28;20220;-76
2021/12/19 00:34:36;;;;;;;7.07;4.17;;;;;;;;;;5030213;28;20254;-76
2021/12/19 00:37:01;;;;;;;6.57;3.77;;;;;;;;;;4996653;28;20229;-76
2021/12/19 00:39:32;;;;;;;6.97;4.67;;;;;;;;;;5010951;28;20222;-75
2021/12/19 00:42:07;;;;;;;5.67;3.80;;;;;;;;;;5016395;28;20721;-76
2021/12/19 00:44:37;;;;;;;7.77;3.90;;;;;;;;;;5009156;28;20220;-76
2021/12/19 00:47:07;;;;;;;7.47;3.80;;;;;;;;;;4997571;28;20217;-76
2021/12/19 00:49:35;;;;;;;6.60;3.40;;;;;;;;;;5009987;28;20219;-76
2021/12/19 00:52:04;;;;;;;8.00;3.37;;;;;;;;;;5016283;28;20281;-76
2021/12/19 00:54:31;;;;;;;5.93;2.93;;;;;;;;;;4996269;28;20757;-75
2021/12/19 00:57:01;;;;;;;5.17;3.10;;;;;;;;;;5012710;28;20225;-76
2021/12/19 00:59:29;;;;;;;6.77;3.50;;;;;;;;;;4995697;28;20689;-75
2021/12/19 01:01:54;;;;;;;7.27;3.10;;;;;;;;;;4996381;28;20233;-76
2021/12/19 01:04:25;;;;;;;6.23;3.20;;;;;;;;;;5000641;28;20236;-76
2021/12/19 01:06:51;;;;;;;7.97;3.97;;;;;;;;;;5016780;28;20224;-76
2021/12/19 01:09:21;;;;;;;8.33;3.73;;;;;;;;;;5033083;28;20212;-76
2021/12/19 01:11:50;;;;;;;5.00;3.00;;;;;;;;;;5016215;28;20293;-76
2021/12/19 01:14:16;;;;;;;8.73;3.80;;;;;;;;;;5012909;28;20311;-76
2021/12/19 01:16:44;;;;;;;6.03;3.30;;;;;;;;;;5015131;28;20224;-76
2021/12/19 01:19:12;;;;;;;7.47;3.40;;;;;;;;;;5012882;28;20240;-76
2021/12/19 01:21:40;;;;;;;7.20;3.50;;;;;;;;;;5028109;28;20248;-76
2021/12/19 01:24:06;;;;;;;7.80;3.27;;;;;;;;;;4996543;28;20701;-76
2021/12/19 01:26:34;;;;;;;7.40;3.63;;;;;;;;;;5015561;28;20303;-76
2021/12/19 01:28:59;;;;;;;7.50;3.50;;;;;;;;;;5048781;28;20257;-76
2021/12/19 01:31:25;;;;;;;10.97;3.60;;;;;;;;;;5010841;28;20586;-75
2021/12/19 01:33:50;;;;;;;8.27;3.73;;;;;;;;;;4997761;28;20224;-76
2021/12/19 01:36:18;;;;;;;10.03;3.77;;;;;;;;;;5008387;28;20216;-75
2021/12/19 01:38:44;;;;;;;8.07;3.87;;;;;;;;;;4996393;28;20248;-75
2021/12/19 01:41:12;;;;;;;10.30;3.90;;;;;;;;;;5007365;28;20235;-75
2021/12/19 01:43:39;;;;;;;7.73;3.90;;;;;;;;;;5023165;28;20216;-74
2021/12/19 01:46:07;;;;;;;10.17;3.90;;;;;;;;;;5017797;28;20224;-75
2021/12/19 01:48:33;;;;;;;9.07;4.10;;;;;;;;;;5012239;28;20224;-76
2021/12/19 01:50:58;;;;;;;7.03;4.03;;;;;;;;;;4995877;28;20315;-75
2021/12/19 01:53:28;;;;;;;9.23;3.90;;;;;;;;;;4984276;28;20281;-75
2021/12/19 01:55:57;;;;;;;10.70;3.50;;;;;;;;;;5023284;28;20224;-75
2021/12/19 01:58:22;;;;;;;7.50;3.60;;;;;;;;;;5006543;28;20243;-75
2021/12/19 02:00:51;;;;;;;6.70;3.80;;;;;;;;;;5011978;28;20702;-76
2021/12/19 02:03:16;;;;;;;8.57;3.80;;;;;;;;;;4994990;28;20224;-77
2021/12/19 02:05:44;;;;;;;9.07;3.63;;;;;;;;;;5002674;28;20311;-75
2021/12/19 02:08:12;;;;;;;8.83;3.57;;;;;;;;;;5014783;28;20220;-76
2021/12/19 02:10:40;;;;;;;9.07;3.60;;;;;;;;;;5011452;28;20221;-76
2021/12/19 02:13:07;;;;;;;5.73;3.13;;;;;;;;;;4994969;28;20272;-75
2021/12/19 02:15:38;;;;;;;8.67;3.00;;;;;;;;;;5013042;28;20221;-75
2021/12/19 02:18:09;;;;;;;8.80;3.10;;;;;;;;;;5012524;28;20229;-75
2021/12/19 02:20:39;;;;;;;9.93;3.40;;;;;;;;;;5006436;28;20220;-75
2021/12/19 02:23:09;;;;;;;5.40;2.73;;;;;;;;;;5024651;28;20231;-75
2021/12/19 02:25:35;;;;;;;9.87;3.13;;;;;;;;;;5020431;28;20618;-76
2021/12/19 02:28:03;;;;;;;8.93;3.30;;;;;;;;;;4996180;28;20308;-76
2021/12/19 02:30:35;;;;;;;5.70;2.90;;;;;;;;;;5013698;28;20229;-76
2021/12/19 02:33:13;;;;;;;8.70;3.60;;;;;;;;;;5015965;28;20232;-76
2021/12/19 02:35:50;;;;;;;7.30;3.33;;;;;;;;;;5013651;28;20217;-76
2021/12/19 02:49:19;;;;;;;8.17;3.07;;;;;;;;;;5016581;28;20701;-75
2021/12/19 02:51:46;;;;;;;6.23;2.97;;;;;;;;;;5027154;28;20295;-76
2021/12/19 02:54:14;;;;;;;6.47;2.87;;;;;;;;;;4978224;28;20643;-75
2021/12/19 02:56:39;;;;;;;8.40;3.27;;;;;;;;;;5011096;28;20244;-76
2021/12/19 02:59:05;;;;;;;8.20;3.20;;;;;;;;;;4978029;28;20216;-75
2021/12/19 03:01:36;;;;;;;6.20;3.60;;;;;;;;;;4981013;28;20240;-75
2021/12/19 03:04:01;;;;;;;7.57;3.13;;;;;;;;;;4995089;28;20233;-76
2021/12/19 03:06:29;;;;;;;10.00;3.90;;;;;;;;;;5010149;28;20299;-75
2021/12/19 03:09:03;;;;;;;8.20;3.57;;;;;;;;;;4994264;28;20266;-76
2021/12/19 03:12:02;;;;;;;7.37;3.00;;;;;;;;;;4973371;28;20208;-75
2021/12/19 03:19:47;;;;;;;10.60;3.37;;;;;;;;;;4996716;28;20225;-76
2021/12/19 03:22:15;;;;;;;7.37;3.50;;;;;;;;;;4998994;28;20615;-76
2021/12/19 03:24:43;;;;;;;8.50;3.63;;;;;;;;;;5010236;28;20232;-76
2021/12/19 03:27:10;;;;;;;8.87;4.10;;;;;;;;;;5034590;28;20215;-75
2021/12/19 03:29:36;;;;;;;7.83;3.90;;;;;;;;;;5011338;28;20218;-74
2021/12/19 03:32:04;;;;;;;10.53;4.60;;;;;;;;;;5015656;28;20743;-75
2021/12/19 03:34:35;;;;;;;9.23;4.33;;;;;;;;;;5013188;28;20220;-75
2021/12/19 03:37:03;;;;;;;9.70;4.20;;;;;;;;;;5010216;28;20274;-75
2021/12/19 03:39:37;;;;;;;13.20;5.10;;;;;;;;;;4993759;28;20243;-75
2021/12/19 03:42:04;;;;;;;11.90;5.20;;;;;;;;;;5015147;28;20231;-75
2021/12/19 03:44:34;;;;;;;12.13;5.40;;;;;;;;;;5012024;28;20299;-75
2021/12/19 03:47:00;;;;;;;9.93;4.93;;;;;;;;;;5010230;28;20216;-75
2021/12/19 03:49:27;;;;;;;14.60;4.97;;;;;;;;;;4977213;28;20332;-75
2021/12/19 03:51:58;;;;;;;9.40;4.77;;;;;;;;;;5012825;28;20661;-75
2021/12/19 03:54:26;;;;;;;14.43;4.77;;;;;;;;;;5029639;28;20277;-74
2021/12/19 03:56:56;;;;;;;10.40;4.27;;;;;;;;;;5011802;28;20246;-77
2021/12/19 03:59:27;;;;;;;9.93;3.90;;;;;;;;;;5009960;28;20299;-76
2021/12/19 04:01:55;;;;;;;10.10;4.60;;;;;;;;;;5009817;28;20224;-76
2021/12/19 04:04:21;;;;;;;11.90;4.50;;;;;;;;;;4996413;28;20693;-76
2021/12/19 04:06:48;;;;;;;9.43;4.50;;;;;;;;;;5014007;28;20244;-76
2021/12/19 04:09:14;;;;;;;11.13;4.47;;;;;;;;;;5026622;28;20225;-76
2021/12/19 04:11:44;;;;;;;9.07;3.87;;;;;;;;;;5014572;28;20339;-76
2021/12/19 04:14:14;;;;;;;7.60;4.40;;;;;;;;;;5013698;28;20228;-75
2021/12/19 04:16:43;;;;;;;7.07;3.80;;;;;;;;;;5007612;28;20221;-75
2021/12/19 04:19:12;;;;;;;8.30;3.37;;;;;;;;;;4977263;28;20224;-75
2021/12/19 04:21:37;;;;;;;9.17;3.63;;;;;;;;;;5011892;28;20244;-75
2021/12/19 04:24:03;;;;;;;8.70;3.30;;;;;;;;;;5009577;28;20267;-75
2021/12/19 04:26:31;;;;;;;7.60;3.30;;;;;;;;;;5009467;28;20242;-75
2021/12/19 04:28:56;;;;;;;10.73;3.80;;;;;;;;;;5023770;28;20231;-75
2021/12/19 04:31:25;;;;;;;13.73;4.20;;;;;;;;;;5028946;28;20212;-75
2021/12/19 04:33:52;;;;;;;10.80;3.77;;;;;;;;;;5016412;28;20219;-75
2021/12/19 04:36:26;;;;;;;11.13;3.57;;;;;;;;;;5026066;28;20227;-75
2021/12/19 04:55:34;;;;;;;7.83;3.10;;;;;;;;;;4996261;28;20224;-76
2021/12/19 04:58:21;;;;;;;8.60;3.07;;;;;;;;;;5016560;28;20224;-75
2021/12/19 05:06:04;;;;;;;5.90;3.00;;;;;;;;;;5018314;28;20224;-74
2021/12/19 05:14:17;;;;;;;10.83;3.37;;;;;;;;;;4999035;28;20224;-75
2021/12/19 05:16:46;;;;;;;14.83;3.50;;;;;;;;;;5014647;28;20216;-75
2021/12/19 05:19:28;;;;;;;9.27;3.77;;;;;;;;;;5010687;28;20681;-76
2021/12/19 05:21:58;;;;;;;11.67;3.40;;;;;;;;;;5032617;28;20236;-75
2021/12/19 05:27:01;;;;;;;6.77;3.00;;;;;;;;;;5012420;28;20247;-75
2021/12/19 05:29:30;;;;;;;8.97;3.43;;;;;;;;;;5018755;28;20671;-75
2021/12/19 05:32:00;;;;;;;11.70;3.67;;;;;;;;;;4979485;28;20228;-75
2021/12/19 05:34:27;;;;;;;8.83;3.77;;;;;;;;;;5000426;28;20220;-75
2021/12/19 05:47:36;;;;;;;10.90;4.20;;;;;;;;;;5012497;28;20213;-76
2021/12/19 05:50:04;;;;;;;12.60;4.53;;;;;;;;;;5004129;28;20256;-76
2021/12/19 05:52:30;;;;;;;10.80;4.33;;;;;;;;;;5011294;28;20221;-76
2021/12/19 05:54:58;;;;;;;11.03;4.00;;;;;;;;;;5028652;28;20228;-76
2021/12/19 05:57:23;;;;;;;6.30;3.27;;;;;;;;;;5011503;28;20680;-76
2021/12/19 05:59:51;;;;;;;7.67;3.50;;;;;;;;;;4988522;28;20220;-76
2021/12/19 06:02:17;;;;;;;8.07;3.07;;;;;;;;;;5030872;28;20232;-76
2021/12/19 06:04:46;;;;;;;6.13;2.60;;;;;;;;;;5032133;28;20228;-76
2021/12/19 06:07:11;;;;;;;9.30;3.07;;;;;;;;;;5014001;28;20232;-76
2021/12/19 06:09:37;;;;;;;4.83;2.40;;;;;;;;;;5031109;28;20212;-76
2021/12/19 06:12:03;;;;;;;4.87;2.13;;;;;;;;;;5028519;28;20315;-76
2021/12/19 06:14:32;;;;;;;6.53;2.37;;;;;;;;;;5007117;28;20224;-75
2021/12/19 06:16:59;;;;;;;6.23;2.07;;;;;;;;;;5031367;28;20264;-75
2021/12/19 06:19:25;;;;;;;6.73;2.13;;;;;;;;;;5014621;28;20223;-75
2021/12/19 06:21:50;;;;;;;7.73;1.90;;;;;;;;;;5030687;28;20235;-75
2021/12/19 06:24:15;;;;;;;4.90;1.77;;;;;;;;;;5012465;28;20299;-75
2021/12/19 06:26:46;;;;;;;5.63;1.60;;;;;;;;;;5011343;28;20217;-75
2021/12/19 06:29:14;;;;;;;5.77;2.50;;;;;;;;;;4999030;28;20216;-75
2021/12/19 06:31:41;;;;;;;4.83;2.20;;;;;;;;;;5020503;28;20225;-74
2021/12/19 06:34:09;;;;;;;7.07;2.70;;;;;;;;;;5011065;28;20316;-77
2021/12/19 06:36:36;;;;;;;4.37;2.37;;;;;;;;;;5007461;28;20225;-74
2021/12/19 06:39:03;;;;;;;5.17;2.40;;;;;;;;;;5018678;28;20293;-76
2021/12/19 06:41:28;;;;;;;3.97;2.20;;;;;;;;;;5027977;28;20228;-75
2021/12/19 06:43:54;;;;;;;4.50;1.87;;;;;;;;;;5046967;28;20212;-74
2021/12/19 06:46:22;;;;;;;7.00;2.10;;;;;;;;;;5027222;28;20661;-76
2021/12/19 06:48:53;;;;;;;8.43;2.13;;;;;;;;;;4995237;28;20292;-73
2021/12/19 06:51:18;;;;;;;5.70;1.87;;;;;;;;;;5009860;28;20223;-76
2021/12/19 06:53:44;;;;;;;6.17;1.80;;;;;;;;;;4997056;28;20213;-75
2021/12/19 06:56:12;;;;;;;4.17;2.30;;;;;;;;;;5055062;28;20224;-75
2021/12/19 06:58:40;;;;;;;4.10;1.70;;;;;;;;;;5026692;28;20627;-75
2021/12/19 07:01:10;;;;;;;4.77;1.60;;;;;;;;;;5033535;28;20216;-76
2021/12/19 07:03:36;;;;;;;4.83;2.00;;;;;;;;;;5031535;28;20220;-77
2021/12/19 07:06:01;;;;;;;6.97;2.07;;;;;;;;;;4997276;28;20312;-76
2021/12/19 07:08:27;;;;;;;3.33;1.50;;;;;;;;;;4994458;28;20227;-76
2021/12/19 07:10:52;;;;;;;7.27;1.90;;;;;;;;;;5002857;28;20216;-76
2021/12/19 07:13:20;;;;;;;4.23;1.57;;;;;;;;;;4996844;28;20286;-75
2021/12/19 07:15:50;;;;;;;6.33;1.77;;;;;;;;;;4996221;28;20737;-75
2021/12/19 07:18:16;;;;;;;4.30;1.50;;;;;;;;;;5034282;28;20281;-76
2021/12/19 07:20:42;;;;;;;5.27;1.87;;;;;;;;;;5022523;28;20239;-75
2021/12/19 07:23:12;;;;;;;6.27;2.20;;;;;;;;;;5028134;28;20778;-75
2021/12/19 07:25:39;;;;;;;6.00;1.90;;;;;;;;;;5018270;28;20216;-75
2021/12/19 07:28:05;;;;;;;7.10;2.13;;;;;;;;;;5010333;28;20231;-75
2021/12/19 07:30:36;;;;;;;4.90;1.90;;;;;;;;;;5010745;28;20224;-75
2021/12/19 07:33:02;;;;;;;7.90;2.07;;;;;;;;;;4977772;28;20231;-75
2021/12/19 07:35:33;;;;;;;4.77;2.20;;;;;;;;;;5012035;28;20221;-75
2021/12/19 07:37:59;;;;;;;3.77;1.60;;;;;;;;;;5029841;28;20212;-75
2021/12/19 07:40:28;;;;;;;7.27;1.83;;;;;;;;;;5026586;28;20213;-75
2021/12/19 07:42:58;;;;;;;4.40;2.13;;;;;;;;;;5005116;28;20298;-75
2021/12/19 07:45:28;;;;;;;6.97;2.20;;;;;;;;;;5045148;28;20216;-77
2021/12/19 07:47:58;;;;;;;3.80;2.23;;;;;;;;;;4994061;28;20287;-75
2021/12/19 07:50:26;;;;;;;4.23;2.00;;;;;;;;;;4993552;28;20227;-75
2021/12/19 07:52:54;;;;;;;4.67;2.50;;;;;;;;;;5029130;28;20220;-75
2021/12/19 07:55:20;;;;;;;3.60;1.67;;;;;;;;;;5012996;28;20251;-74
2021/12/19 07:57:48;;;;;;;8.80;2.00;;;;;;;;;;5010206;28;20255;-76
2021/12/19 08:00:14;;;;;;;4.20;1.77;;;;;;;;;;4993599;28;20224;-75
2021/12/19 08:02:42;;;;;;;5.83;2.30;;;;;;;;;;5006060;28;20229;-76
2021/12/19 08:05:11;;;;;;;6.93;2.23;;;;;;;;;;5029337;28;20235;-74
2021/12/19 08:07:38;;;;;;;5.90;2.23;;;;;;;;;;5017960;28;20219;-74
2021/12/19 08:12:35;;;;;;;7.43;2.00;;;;;;;;;;5029315;28;20212;-75
2021/12/19 08:15:07;;;;;;;5.37;2.17;;;;;;;;;;5045094;28;20220;-75
2021/12/19 08:17:35;;;;;;;7.13;2.30;;;;;;;;;;5026336;28;20217;-76
2021/12/19 08:20:01;;;;;;;7.43;2.40;;;;;;;;;;4993764;28;20244;-75
2021/12/19 08:22:29;;;;;;;5.10;2.63;;;;;;;;;;4988153;28;20255;-75
2021/12/19 08:24:57;;;;;;;6.27;2.33;;;;;;;;;;5029647;28;20212;-75
2021/12/19 08:27:54;;;;;;;8.60;2.47;;;;;;;;;;5009657;28;20234;-75
2021/12/19 08:30:28;;;;;;;6.47;2.30;;;;;;;;;;5010816;28;20226;-75
2021/12/19 08:33:13;;;;;;;9.97;2.90;;;;;;;;;;5026638;28;20208;-75
2021/12/19 08:35:42;;;;;;;6.87;2.53;;;;;;;;;;5033827;28;20678;-76
2021/12/19 08:38:09;;;;;;;8.53;2.90;;;;;;;;;;5015001;28;20295;-75
2021/12/19 08:40:35;;;;;;;7.00;1.70;;;;;;;;;;5006668;28;20730;-76
2021/12/19 08:43:05;;;;;;;7.70;2.00;;;;;;;;;;5027510;28;20231;-76
2021/12/19 08:45:36;;;;;;;6.07;1.67;;;;;;;;;;5032794;28;20216;-76
2021/12/19 08:48:03;;;;;;;5.77;1.80;;;;;;;;;;5019715;28;20294;-75
2021/12/19 08:50:31;;;;;;;6.03;1.73;;;;;;;;;;5040292;28;20307;-71
2021/12/19 08:52:56;;;;;;;11.30;2.10;;;;;;;;;;5023830;28;20906;-74
2021/12/19 08:55:25;;;;;;;5.17;2.17;;;;;;;;;;5015898;28;20685;-73
2021/12/19 08:57:51;;;;;;;8.57;2.33;;;;;;;;;;5022731;28;20259;-74
2021/12/19 09:00:21;;;;;;;12.27;2.47;;;;;;;;;;5013575;28;20308;-74
2021/12/19 09:02:53;;;;;;;5.53;2.27;;;;;;;;;;5008277;28;20224;-74
2021/12/19 09:05:22;;;;;;;6.30;2.03;;;;;;;;;;5020293;28;20232;-74
2021/12/19 09:07:50;;;;;;;7.40;1.80;;;;;;;;;;5013475;28;20216;-74
2021/12/19 09:10:19;;;;;;;11.77;2.20;;;;;;;;;;5012971;28;20220;-74
2021/12/19 09:12:44;;;;;;;7.73;1.97;;;;;;;;;;5021250;28;20593;-74
2021/12/19 09:15:13;;;;;;;7.03;2.00;;;;;;;;;;5033659;28;20224;-74
2021/12/19 09:17:38;;;;;;;9.13;1.90;;;;;;;;;;5000016;28;20216;-74
2021/12/19 09:20:07;;;;;;;10.90;2.00;;;;;;;;;;5015500;28;20223;-75
2021/12/19 09:22:37;;;;;;;7.37;1.60;;;;;;;;;;5012377;28;20224;-74
2021/12/19 09:25:08;;;;;;;9.37;2.20;;;;;;;;;;5013809;28;20611;-75
2021/12/19 09:27:41;;;;;;;11.10;2.00;;;;;;;;;;5016802;28;20219;-74
2021/12/19 09:30:09;;;;;;;9.83;1.67;;;;;;;;;;5031863;28;20227;-73
2021/12/19 09:32:35;;;;;;;7.17;1.80;;;;;;;;;;5028835;28;20228;-73
2021/12/19 09:35:03;;;;;;;12.40;2.50;;;;;;;;;;5009326;28;20232;-75
2021/12/19 09:37:35;;;;;;;11.33;2.40;;;;;;;;;;5012127;28;20213;-74
2021/12/19 09:40:04;;;;;;;9.07;2.13;;;;;;;;;;5012084;28;20228;-74
2021/12/19 09:42:35;;;;;;;8.03;2.17;;;;;;;;;;4996220;28;20243;-74
2021/12/19 09:45:03;;;;;;;9.07;2.57;;;;;;;;;;5012947;28;20292;-75
2021/12/19 09:47:31;;;;;;;9.20;1.90;;;;;;;;;;4997477;28;20229;-74
2021/12/19 09:49:57;;;;;;;6.30;2.00;;;;;;;;;;5028042;28;20577;-76
2021/12/19 09:52:25;;;;;;;8.33;2.33;;;;;;;;;;5027450;28;20304;-77
2021/12/19 09:54:51;;;;;;;11.07;2.33;;;;;;;;;;5028157;28;20217;-76
2021/12/19 09:57:16;;;;;;;6.73;1.93;;;;;;;;;;5008200;28;20638;-78
2021/12/19 09:59:45;;;;;;;9.80;1.90;;;;;;;;;;4994596;28;20232;-76
2021/12/19 10:02:11;;;;;;;10.73;2.27;;;;;;;;;;5024641;28;20597;-75
2021/12/19 10:04:43;;;;;;;10.37;2.37;;;;;;;;;;4992239;28;20865;-74
2021/12/19 10:07:24;;;;;;;10.13;2.50;;;;;;;;;;4980375;28;20219;-76
2021/12/19 10:09:55;;;;;;;9.17;2.17;;;;;;;;;;5015510;28;20668;-78
2021/12/19 10:12:48;;;;;;;6.87;1.80;;;;;;;;;;5031473;28;20244;-74
2021/12/19 10:15:13;;;;;;;8.00;2.40;;;;;;;;;;5011492;28;20226;-73
2021/12/19 10:17:39;;;;;;;11.33;2.30;;;;;;;;;;4994364;28;20643;-74
2021/12/19 10:20:15;;;;;;;8.13;2.00;;;;;;;;;;5010410;28;20212;-75
2021/12/19 10:22:43;;;;;;;10.77;1.90;;;;;;;;;;5047549;28;20238;-75
2021/12/19 10:25:18;;;;;;;10.87;2.40;;;;;;;;;;5027834;28;20221;-76
2021/12/19 10:27:47;;;;;;;7.33;2.43;;;;;;;;;;5012805;28;20216;-77
2021/12/19 10:30:32;;;;;;;9.30;2.07;;;;;;;;;;5028270;28;20220;-74
2021/12/19 10:33:10;;;;;;;6.73;1.90;;;;;;;;;;5012017;28;20704;-75
2021/12/19 10:35:41;;;;;;;12.83;2.97;;;;;;;;;;5016330;28;20222;-75
2021/12/19 10:38:17;;;;;;;13.47;3.60;;;;;;;;;;5027347;28;20228;-73
2021/12/19 10:41:00;;;;;;;7.63;2.33;;;;;;;;;;5027318;28;20216;-75
2021/12/19 10:43:29;;;;;;;7.07;1.77;;;;;;;;;;5006177;28;20319;-74
2021/12/19 10:45:58;;;;;;;10.90;2.50;;;;;;;;;;4980254;28;20298;-75
2021/12/19 10:48:34;;;;;;;8.77;2.00;;;;;;;;;;5010848;28;20592;-75
2021/12/19 10:51:09;;;;;;;13.63;4.70;;;;;;;;;;5028069;28;20228;-75
2021/12/19 10:53:41;;;;;;;10.13;2.33;;;;;;;;;;4994824;28;20223;-75
2021/12/19 10:56:31;;;;;;;6.60;2.13;;;;;;;;;;5026234;28;20216;-75
2021/12/19 10:58:58;;;;;;;10.77;3.67;;;;;;;;;;5015939;28;20278;-74
2021/12/19 11:01:31;;;;;;;9.33;2.10;;;;;;;;;;5022383;28;20225;-75
2021/12/19 11:04:06;;;;;;;8.50;2.53;;;;;;;;;;5039218;28;20236;-74
2021/12/19 11:06:40;;;;;;;10.87;2.10;;;;;;;;;;5021103;28;20251;-74
2021/12/19 11:09:15;;;;;;;8.43;3.10;;;;;;;;;;5025785;28;20228;-74
2021/12/19 11:11:54;;;;;;;12.03;2.47;;;;;;;;;;5010389;28;20585;-75
2021/12/19 11:14:27;;;;;;;8.20;2.40;;;;;;;;;;5010352;28;20224;-74
2021/12/19 11:16:57;;;;;;;7.80;1.90;;;;;;;;;;4995711;28;20702;-74
2021/12/19 11:19:26;;;;;;;7.63;2.27;;;;;;;;;;4998749;28;20816;-73
2021/12/19 11:21:51;;;;;;;11.63;2.27;;;;;;;;;;4989679;28;20296;-73
2021/12/19 11:24:18;;;;;;;7.57;2.20;;;;;;;;;;4977614;28;20235;-74
2021/12/19 11:26:48;;;;;;;9.67;2.27;;;;;;;;;;4996359;28;20290;-75
2021/12/19 11:29:17;;;;;;;9.97;2.33;;;;;;;;;;4989864;28;20220;-77
2021/12/19 11:31:46;;;;;;;10.13;2.73;;;;;;;;;;5013870;28;20220;-75
2021/12/19 11:34:23;;;;;;;12.40;3.40;;;;;;;;;;5012307;28;20232;-76
2021/12/19 11:36:56;;;;;;;9.53;2.73;;;;;;;;;;5024412;28;20600;-75
2021/12/19 11:39:25;;;;;;;13.80;3.20;;;;;;;;;;5007632;28;20217;-76
2021/12/19 11:42:14;;;;;;;10.53;2.67;;;;;;;;;;5009193;28;20259;-75
2021/12/19 11:47:53;;;;;;;11.37;2.93;;;;;;;;;;5029017;28;20231;-77
2021/12/19 11:50:30;;;;;;;8.03;2.80;;;;;;;;;;4994643;28;20243;-75
2021/12/19 11:53:07;;;;;;;9.53;2.70;;;;;;;;;;5010206;28;20216;-75
2021/12/19 11:55:34;;;;;;;6.93;2.30;;;;;;;;;;5009662;28;20252;-75
2021/12/19 11:58:11;;;;;;;7.40;1.80;;;;;;;;;;5010523;28;20222;-74
2021/12/19 12:00:39;;;;;;;11.77;3.20;;;;;;;;;;5014692;28;20221;-75
2021/12/19 12:03:13;;;;;;;7.53;2.47;;;;;;;;;;5019452;28;20316;-75
2021/12/19 12:05:53;;;;;;;6.90;1.90;;;;;;;;;;5022290;28;20223;-74
2021/12/19 12:08:19;;;;;;;10.33;2.50;;;;;;;;;;5018511;28;20274;-77
2021/12/19 12:10:48;;;;;;;8.23;1.97;;;;;;;;;;5024041;28;20236;-78
2021/12/19 12:13:23;;;;;;;12.23;2.17;;;;;;;;;;5048110;28;20254;-78
2021/12/19 12:15:54;;;;;;;9.90;2.30;;;;;;;;;;5032824;28;20250;-77
2021/12/19 12:18:44;;;;;;;7.33;1.73;;;;;;;;;;5005757;28;20260;-77
2021/12/19 12:21:23;;;;;;;10.40;2.80;;;;;;;;;;5000421;28;20228;-76
2021/12/19 12:23:58;;;;;;;8.30;2.40;;;;;;;;;;5017745;28;20231;-78
2021/12/19 12:26:24;;;;;;;9.60;2.30;;;;;;;;;;4995165;28;20222;-78
2021/12/19 12:28:52;;;;;;;12.33;2.70;;;;;;;;;;5035606;28;20220;-77
2021/12/19 12:31:18;;;;;;;6.87;2.80;;;;;;;;;;5011151;28;20251;-79
2021/12/19 12:33:49;;;;;;;9.73;2.80;;;;;;;;;;5032634;28;20212;-80
2021/12/19 12:36:15;;;;;;;10.67;2.03;;;;;;;;;;5018404;28;20221;-78
2021/12/19 12:38:46;;;;;;;10.77;2.10;;;;;;;;;;5003192;28;20219;-78
2021/12/19 12:41:39;;;;;;;10.37;2.40;;;;;;;;;;5022482;28;20612;-77
2021/12/19 12:44:18;;;;;;;10.83;2.60;;;;;;;;;;5006985;28;20236;-80
2021/12/19 12:46:44;;;;;;;11.47;2.07;;;;;;;;;;5003843;28;20295;-77
2021/12/19 12:49:18;;;;;;;9.30;2.43;;;;;;;;;;4997354;28;20321;-79
2021/12/19 12:51:59;;;;;;;7.47;2.27;;;;;;;;;;5029544;28;20216;-75
2021/12/19 12:54:38;;;;;;;7.63;2.20;;;;;;;;;;4985319;28;20224;-77
2021/12/19 12:57:11;;;;;;;5.93;1.77;;;;;;;;;;4998048;28;20225;-76
2021/12/19 12:59:40;;;;;;;7.47;2.37;;;;;;;;;;5000007;28;20312;-75
2021/12/19 13:02:17;;;;;;;9.37;2.00;;;;;;;;;;5029202;28;20311;-75
2021/12/19 13:04:46;;;;;;;6.27;1.97;;;;;;;;;;5013572;28;20236;-74
2021/12/19 13:07:26;;;;;;;7.93;1.90;;;;;;;;;;5001963;28;20220;-74
2021/12/19 13:09:57;;;;;;;8.53;2.13;;;;;;;;;;5015594;28;20739;-76
2021/12/19 13:12:25;;;;;;;9.73;2.30;;;;;;;;;;5013588;28;20260;-77
2021/12/19 13:14:54;;;;;;;10.77;2.47;;;;;;;;;;5016550;28;20757;-77
2021/12/19 13:17:25;;;;;;;7.73;1.90;;;;;;;;;;5022835;28;20228;-75
2021/12/19 13:19:55;;;;;;;6.80;1.80;;;;;;;;;;5016953;28;20216;-74
2021/12/19 13:22:47;;;;;;;9.77;2.40;;;;;;;;;;5012465;28;20718;-77
2021/12/19 13:25:25;;;;;;;9.40;3.27;;;;;;;;;;4996369;28;20324;-76
2021/12/19 13:28:00;;;;;;;7.17;2.23;;;;;;;;;;5012441;28;20188;-78
2021/12/19 13:30:27;;;;;;;8.20;2.27;;;;;;;;;;5016811;28;20188;-77
2021/12/19 13:33:21;;;;;;;9.47;2.30;;;;;;;;;;5029275;28;20685;-77
2021/12/19 13:35:53;;;;;;;10.40;2.30;;;;;;;;;;5014664;28;20205;-76
2021/12/19 13:38:26;;;;;;;6.27;2.30;;;;;;;;;;4980926;28;20654;-76
2021/12/19 13:41:03;;;;;;;9.97;2.40;;;;;;;;;;4997140;28;20247;-76
2021/12/19 13:43:41;;;;;;;7.23;2.30;;;;;;;;;;5027880;28;20343;-76
2021/12/19 13:46:10;;;;;;;9.87;2.90;;;;;;;;;;5001586;28;20656;-77
2021/12/19 13:48:51;;;;;;;7.20;2.10;;;;;;;;;;5048874;28;20223;-76
2021/12/19 13:51:21;;;;;;;6.60;2.37;;;;;;;;;;4999788;28;20234;-76
2021/12/19 13:53:53;;;;;;;11.27;2.77;;;;;;;;;;5032183;28;20219;-75
2021/12/19 13:56:24;;;;;;;8.93;2.30;;;;;;;;;;5022313;28;20280;-76
2021/12/19 13:58:54;;;;;;;9.20;2.40;;;;;;;;;;4981619;28;20662;-74
2021/12/19 14:01:24;;;;;;;4.07;1.53;;;;;;;;;;5036262;28;20220;-76
2021/12/19 14:03:54;;;;;;;9.13;2.27;;;;;;;;;;5042152;28;20223;-77
2021/12/19 14:06:41;;;;;;;5.60;2.10;;;;;;;;;;5028995;28;20698;-77
2021/12/19 14:09:12;;;;;;;6.33;2.00;;;;;;;;;;5011949;28;20701;-79
2021/12/19 14:11:43;;;;;;;8.17;2.60;;;;;;;;;;4984929;28;20222;-78
2021/12/19 14:14:33;;;;;;;6.07;1.80;;;;;;;;;;5032259;28;20781;-77
2021/12/19 14:17:01;;;;;;;6.70;1.80;;;;;;;;;;5039232;28;20220;-77
2021/12/19 14:19:31;;;;;;;9.43;2.10;;;;;;;;;;5027369;28;20220;-77
2021/12/19 14:22:06;;;;;;;6.87;1.90;;;;;;;;;;5024698;28;20225;-74
2021/12/19 14:24:37;;;;;;;4.93;1.50;;;;;;;;;;5033361;28;20224;-74
2021/12/19 14:27:10;;;;;;;6.20;1.97;;;;;;;;;;4997720;28;20216;-76
2021/12/19 14:29:39;;;;;;;8.17;1.97;;;;;;;;;;5019236;28;20212;-74
2021/12/19 14:32:34;;;;;;;6.07;1.53;;;;;;;;;;5016143;28;20587;-75
2021/12/19 14:35:00;;;;;;;9.00;2.27;;;;;;;;;;5028559;28;20224;-73
2021/12/19 14:37:29;;;;;;;9.63;2.30;;;;;;;;;;5013844;28;20217;-71
2021/12/19 14:40:06;;;;;;;6.27;1.83;;;;;;;;;;5020595;28;20240;-75
2021/12/19 14:42:37;;;;;;;5.40;1.90;;;;;;;;;;5010320;28;20240;-75
2021/12/19 14:45:05;;;;;;;7.50;1.93;;;;;;;;;;5013076;28;20792;-75
2021/12/19 14:47:50;;;;;;;9.03;2.20;;;;;;;;;;5026850;28;20305;-75
2021/12/19 14:50:21;;;;;;;6.47;1.70;;;;;;;;;;4996882;28;20224;-75
2021/12/19 14:53:08;;;;;;;5.50;1.70;;;;;;;;;;5004176;28;20220;-76
2021/12/19 14:55:58;;;;;;;7.30;1.77;;;;;;;;;;5032285;28;20228;-75
2021/12/19 14:58:27;;;;;;;10.77;2.80;;;;;;;;;;5029982;28;20228;-74
2021/12/19 15:01:02;;;;;;;7.53;1.97;;;;;;;;;;5034639;28;20220;-74
2021/12/19 15:03:30;;;;;;;6.27;2.07;;;;;;;;;;5002825;28;20316;-74
2021/12/19 15:06:12;;;;;;;6.90;2.03;;;;;;;;;;5090021;23;20242;-74
2021/12/19 15:08:41;;;;;;;10.73;3.17;;;;;;;;;;5034445;28;20284;-76
2021/12/19 15:11:07;;;;;;;7.50;2.20;;;;;;;;;;5026878;28;20224;-77
2021/12/19 15:13:33;;;;;;;10.97;2.70;;;;;;;;;;5016950;28;20720;-75
2021/12/19 15:15:59;;;;;;;12.10;2.50;;;;;;;;;;4990674;28;20240;-76
2021/12/19 15:18:25;;;;;;;9.20;2.20;;;;;;;;;;4995260;28;20223;-74
2021/12/19 15:20:53;;;;;;;7.47;2.30;;;;;;;;;;5030322;28;20215;-74
2021/12/19 15:23:19;;;;;;;10.80;2.80;;;;;;;;;;5038699;28;20235;-75
2021/12/19 15:25:45;;;;;;;8.33;2.40;;;;;;;;;;5032999;28;20708;-75
2021/12/19 15:28:14;;;;;;;10.60;2.77;;;;;;;;;;5030044;28;20212;-75
2021/12/19 15:30:41;;;;;;;7.70;2.27;;;;;;;;;;5000179;28;20216;-75
2021/12/19 15:33:09;;;;;;;9.30;2.00;;;;;;;;;;5013409;28;20308;-75
2021/12/19 15:35:35;;;;;;;11.60;2.30;;;;;;;;;;4999240;28;20769;-75
2021/12/19 15:38:06;;;;;;;10.43;2.30;;;;;;;;;;5013206;28;20212;-75
2021/12/19 15:40:34;;;;;;;7.40;2.27;;;;;;;;;;4997447;28;20208;-75
2021/12/19 15:43:00;;;;;;;10.07;2.67;;;;;;;;;;5032469;28;20227;-75
2021/12/19 15:45:29;;;;;;;13.30;3.00;;;;;;;;;;5014243;28;20232;-76
2021/12/19 15:47:57;;;;;;;11.67;2.60;;;;;;;;;;5031174;28;20277;-76
2021/12/19 15:50:22;;;;;;;22.93;3.43;;;;;;;;;;5026336;28;20278;-74
2021/12/19 15:52:48;;;;;;;12.40;3.40;;;;;;;;;;4991282;28;20220;-75
2021/12/19 15:55:13;;;;;;;13.63;3.40;;;;;;;;;;5008861;28;20228;-75
2021/12/19 15:57:40;;;;;;;14.73;3.40;;;;;;;;;;5028290;28;20302;-76
2021/12/19 16:00:10;;;;;;;9.93;2.80;;;;;;;;;;4995583;28;20242;-76
2021/12/19 16:02:45;;;;;;;12.03;2.80;;;;;;;;;;4994935;28;20224;-77
2021/12/19 16:05:13;;;;;;;15.23;3.80;;;;;;;;;;5009645;28;20220;-75
2021/12/19 16:07:43;;;;;;;12.37;3.50;;;;;;;;;;5015579;28;20261;-76
2021/12/19 16:10:11;;;;;;;13.03;3.00;;;;;;;;;;5026450;28;20593;-76